Hooglede, Belgium
Current Conditions -  °F | °C
As of 9:20 AM on Friday 24 Oct 2014 (Local Time) from EBOS Reporting Station
Light Rain Light Rain  
Wind Chill: 52°   Ceiling: 300
Heat Index: 52°   Visibility: 1.8mi
Dew Point: 48°   Wind: 12mph
Humidity: 88%   Direction: 180°S
Pressure: 30.06"   Gusts: NA
Location:  50.98°N, 3.08°E
Report Text: EBOS 240720Z 18010KT 3000 -RADZ BR BKN003 BKN006 11/09 Q1018 RERADZ TEMPO SCT003 BKN006
Loading
Personal Weather Stations






























Interactive Weather Map
Tropical Storm Tracking
New forecast layout! Learn more

10-Day Weather Forecast

Advertisements
Track Severe Weather on mobile